sensor_id;sensor_type;location;lat;lon;timestamp;P1;durP1;ratioP1;P2;durP2;ratioP2
71759;SDS011;59919;48.112;16.280;2023-07-08T00:01:28;2.45;;;1.40;;
71759;SDS011;59919;48.112;16.280;2023-07-08T00:03:59;1.48;;;1.30;;
71759;SDS011;59919;48.112;16.280;2023-07-08T00:06:30;1.40;;;1.30;;
71759;SDS011;59919;48.112;16.280;2023-07-08T00:09:07;1.70;;;1.42;;
71759;SDS011;59919;48.112;16.280;2023-07-08T00:11:43;1.48;;;1.35;;
71759;SDS011;59919;48.112;16.280;2023-07-08T00:14:14;1.70;;;1.50;;
71759;SDS011;59919;48.112;16.280;2023-07-08T00:16:50;2.92;;;1.40;;
71759;SDS011;59919;48.112;16.280;2023-07-08T00:19:25;1.63;;;1.48;;
71759;SDS011;59919;48.112;16.280;2023-07-08T00:21:59;1.67;;;1.50;;
71759;SDS011;59919;48.112;16.280;2023-07-08T00:24:31;2.63;;;1.55;;
71759;SDS011;59919;48.112;16.280;2023-07-08T00:27:07;2.03;;;1.50;;
71759;SDS011;59919;48.112;16.280;2023-07-08T00:29:41;2.67;;;1.50;;
71759;SDS011;59919;48.112;16.280;2023-07-08T00:32:14;2.78;;;1.75;;
71759;SDS011;59919;48.112;16.280;2023-07-08T00:34:46;1.70;;;1.60;;
71759;SDS011;59919;48.112;16.280;2023-07-08T00:37:18;1.33;;;1.23;;
71759;SDS011;59919;48.112;16.280;2023-07-08T00:39:49;1.60;;;1.40;;
71759;SDS011;59919;48.112;16.280;2023-07-08T00:42:21;2.10;;;1.35;;
71759;SDS011;59919;48.112;16.280;2023-07-08T00:44:55;1.65;;;1.20;;
71759;SDS011;59919;48.112;16.280;2023-07-08T00:47:29;1.65;;;1.50;;
71759;SDS011;59919;48.112;16.280;2023-07-08T00:50:02;1.77;;;1.50;;
71759;SDS011;59919;48.112;16.280;2023-07-08T00:52:39;1.52;;;1.33;;
71759;SDS011;59919;48.112;16.280;2023-07-08T00:55:13;1.83;;;1.52;;
71759;SDS011;59919;48.112;16.280;2023-07-08T00:57:44;1.95;;;1.45;;
71759;SDS011;59919;48.112;16.280;2023-07-08T01:00:22;1.85;;;1.42;;
71759;SDS011;59919;48.112;16.280;2023-07-08T01:02:54;1.60;;;1.50;;
71759;SDS011;59919;48.112;16.280;2023-07-08T01:05:32;1.80;;;1.70;;
71759;SDS011;59919;48.112;16.280;2023-07-08T01:08:09;2.35;;;1.58;;
71759;SDS011;59919;48.112;16.280;2023-07-08T01:10:45;2.00;;;1.70;;
71759;SDS011;59919;48.112;16.280;2023-07-08T01:13:20;1.92;;;1.50;;
71759;SDS011;59919;48.112;16.280;2023-07-08T01:15:52;1.70;;;1.45;;
71759;SDS011;59919;48.112;16.280;2023-07-08T01:18:26;1.58;;;1.30;;
71759;SDS011;59919;48.112;16.280;2023-07-08T01:21:05;1.65;;;1.50;;
71759;SDS011;59919;48.112;16.280;2023-07-08T01:24:00;1.70;;;1.23;;
71759;SDS011;59919;48.112;16.280;2023-07-08T01:26:33;1.60;;;1.50;;
71759;SDS011;59919;48.112;16.280;2023-07-08T01:29:08;2.28;;;1.73;;
71759;SDS011;59919;48.112;16.280;2023-07-08T01:31:42;1.83;;;1.30;;
71759;SDS011;59919;48.112;16.280;2023-07-08T01:36:52;1.77;;;1.42;;
71759;SDS011;59919;48.112;16.280;2023-07-08T01:39:27;2.05;;;1.63;;
71759;SDS011;59919;48.112;16.280;2023-07-08T01:41:59;1.55;;;1.27;;
71759;SDS011;59919;48.112;16.280;2023-07-08T01:44:32;1.77;;;1.65;;
71759;SDS011;59919;48.112;16.280;2023-07-08T01:49:45;1.65;;;1.55;;
71759;SDS011;59919;48.112;16.280;2023-07-08T01:52:21;1.70;;;1.60;;
71759;SDS011;59919;48.112;16.280;2023-07-08T01:54:55;2.08;;;1.88;;
71759;SDS011;59919;48.112;16.280;2023-07-08T01:57:26;1.70;;;1.58;;
71759;SDS011;59919;48.112;16.280;2023-07-08T01:59:58;1.85;;;1.60;;
71759;SDS011;59919;48.112;16.280;2023-07-08T02:02:29;1.90;;;1.52;;
71759;SDS011;59919;48.112;16.280;2023-07-08T02:05:00;1.83;;;1.58;;
71759;SDS011;59919;48.112;16.280;2023-07-08T02:07:31;1.60;;;1.50;;
71759;SDS011;59919;48.112;16.280;2023-07-08T02:10:02;2.17;;;1.55;;
71759;SDS011;59919;48.112;16.280;2023-07-08T02:12:34;1.75;;;1.60;;
71759;SDS011;59919;48.112;16.280;2023-07-08T02:15:09;1.40;;;1.30;;
71759;SDS011;59919;48.112;16.280;2023-07-08T02:17:41;1.35;;;1.20;;
71759;SDS011;59919;48.112;16.280;2023-07-08T02:20:20;2.53;;;1.58;;
71759;SDS011;59919;48.112;16.280;2023-07-08T02:22:54;1.70;;;1.60;;
71759;SDS011;59919;48.112;16.280;2023-07-08T02:25:27;1.85;;;1.55;;
71759;SDS011;59919;48.112;16.280;2023-07-08T02:27:59;1.50;;;1.33;;
71759;SDS011;59919;48.112;16.280;2023-07-08T02:30:33;2.15;;;1.70;;
71759;SDS011;59919;48.112;16.280;2023-07-08T02:33:04;1.73;;;1.60;;
71759;SDS011;59919;48.112;16.280;2023-07-08T02:35:35;1.80;;;1.63;;
71759;SDS011;59919;48.112;16.280;2023-07-08T02:38:06;1.75;;;1.50;;
71759;SDS011;59919;48.112;16.280;2023-07-08T02:40:37;1.60;;;1.48;;
71759;SDS011;59919;48.112;16.280;2023-07-08T02:43:08;2.08;;;1.50;;
71759;SDS011;59919;48.112;16.280;2023-07-08T02:45:39;1.67;;;1.55;;
71759;SDS011;59919;48.112;16.280;2023-07-08T02:48:12;3.17;;;1.50;;
71759;SDS011;59919;48.112;16.280;2023-07-08T02:50:43;1.77;;;1.40;;
71759;SDS011;59919;48.112;16.280;2023-07-08T02:53:14;1.60;;;1.50;;
71759;SDS011;59919;48.112;16.280;2023-07-08T02:55:48;1.60;;;1.40;;
71759;SDS011;59919;48.112;16.280;2023-07-08T02:58:20;2.00;;;1.52;;
71759;SDS011;59919;48.112;16.280;2023-07-08T03:00:55;1.88;;;1.48;;
71759;SDS011;59919;48.112;16.280;2023-07-08T03:03:32;1.48;;;1.38;;
71759;SDS011;59919;48.112;16.280;2023-07-08T03:06:05;1.98;;;1.77;;
71759;SDS011;59919;48.112;16.280;2023-07-08T03:08:38;2.17;;;1.70;;
71759;SDS011;59919;48.112;16.280;2023-07-08T03:11:12;1.85;;;1.50;;
71759;SDS011;59919;48.112;16.280;2023-07-08T03:13:43;2.42;;;1.50;;
71759;SDS011;59919;48.112;16.280;2023-07-08T03:16:18;1.73;;;1.60;;
71759;SDS011;59919;48.112;16.280;2023-07-08T03:18:51;1.80;;;1.33;;
71759;SDS011;59919;48.112;16.280;2023-07-08T03:21:28;2.17;;;1.77;;
71759;SDS011;59919;48.112;16.280;2023-07-08T03:24:02;1.92;;;1.60;;
71759;SDS011;59919;48.112;16.280;2023-07-08T03:26:33;1.85;;;1.50;;
71759;SDS011;59919;48.112;16.280;2023-07-08T03:29:05;3.78;;;1.60;;
71759;SDS011;59919;48.112;16.280;2023-07-08T03:31:39;2.17;;;1.88;;
71759;SDS011;59919;48.112;16.280;2023-07-08T03:34:11;2.08;;;1.85;;
71759;SDS011;59919;48.112;16.280;2023-07-08T03:36:47;1.65;;;1.30;;
71759;SDS011;59919;48.112;16.280;2023-07-08T03:39:24;1.95;;;1.50;;
71759;SDS011;59919;48.112;16.280;2023-07-08T03:41:58;1.70;;;1.60;;
71759;SDS011;59919;48.112;16.280;2023-07-08T03:44:29;1.95;;;1.75;;
71759;SDS011;59919;48.112;16.280;2023-07-08T03:47:01;1.50;;;1.40;;
71759;SDS011;59919;48.112;16.280;2023-07-08T03:49:32;1.88;;;1.48;;
71759;SDS011;59919;48.112;16.280;2023-07-08T03:52:04;1.67;;;1.48;;
71759;SDS011;59919;48.112;16.280;2023-07-08T03:54:43;2.28;;;1.60;;
71759;SDS011;59919;48.112;16.280;2023-07-08T03:57:14;2.13;;;1.85;;
71759;SDS011;59919;48.112;16.280;2023-07-08T03:59:51;1.67;;;1.58;;
71759;SDS011;59919;48.112;16.280;2023-07-08T04:02:22;2.70;;;1.67;;
71759;SDS011;59919;48.112;16.280;2023-07-08T04:04:56;1.73;;;1.60;;
71759;SDS011;59919;48.112;16.280;2023-07-08T04:07:27;1.92;;;1.50;;
71759;SDS011;59919;48.112;16.280;2023-07-08T04:10:03;1.88;;;1.60;;
71759;SDS011;59919;48.112;16.280;2023-07-08T04:12:35;1.83;;;1.50;;
71759;SDS011;59919;48.112;16.280;2023-07-08T04:15:08;1.75;;;1.40;;
71759;SDS011;59919;48.112;16.280;2023-07-08T04:17:43;2.28;;;1.67;;
71759;SDS011;59919;48.112;16.280;2023-07-08T04:20:21;1.40;;;1.30;;
71759;SDS011;59919;48.112;16.280;2023-07-08T04:22:55;1.55;;;1.40;;
71759;SDS011;59919;48.112;16.280;2023-07-08T04:25:27;1.92;;;1.70;;
71759;SDS011;59919;48.112;16.280;2023-07-08T04:27:58;2.90;;;1.83;;
71759;SDS011;59919;48.112;16.280;2023-07-08T04:30:31;2.03;;;1.65;;
71759;SDS011;59919;48.112;16.280;2023-07-08T04:33:02;1.50;;;1.40;;
71759;SDS011;59919;48.112;16.280;2023-07-08T04:35:37;1.50;;;1.40;;
71759;SDS011;59919;48.112;16.280;2023-07-08T04:38:14;1.80;;;1.42;;
71759;SDS011;59919;48.112;16.280;2023-07-08T04:40:53;1.70;;;1.60;;
71759;SDS011;59919;48.112;16.280;2023-07-08T04:43:25;1.83;;;1.60;;
71759;SDS011;59919;48.112;16.280;2023-07-08T04:45:59;1.70;;;1.40;;
71759;SDS011;59919;48.112;16.280;2023-07-08T04:48:33;1.83;;;1.70;;
71759;SDS011;59919;48.112;16.280;2023-07-08T04:51:04;2.13;;;1.50;;
71759;SDS011;59919;48.112;16.280;2023-07-08T04:53:41;1.48;;;1.38;;
71759;SDS011;59919;48.112;16.280;2023-07-08T04:56:12;1.70;;;1.48;;
71759;SDS011;59919;48.112;16.280;2023-07-08T04:58:46;1.90;;;1.60;;
71759;SDS011;59919;48.112;16.280;2023-07-08T05:01:20;2.00;;;1.50;;
71759;SDS011;59919;48.112;16.280;2023-07-08T05:03:52;2.05;;;1.60;;
71759;SDS011;59919;48.112;16.280;2023-07-08T05:06:22;1.70;;;1.58;;
71759;SDS011;59919;48.112;16.280;2023-07-08T05:08:56;1.95;;;1.40;;
71759;SDS011;59919;48.112;16.280;2023-07-08T05:11:28;1.88;;;1.60;;
71759;SDS011;59919;48.112;16.280;2023-07-08T05:14:00;1.38;;;1.27;;
71759;SDS011;59919;48.112;16.280;2023-07-08T05:16:34;1.58;;;1.48;;
71759;SDS011;59919;48.112;16.280;2023-07-08T05:19:10;1.90;;;1.48;;
71759;SDS011;59919;48.112;16.280;2023-07-08T05:21:42;1.80;;;1.70;;
71759;SDS011;59919;48.112;16.280;2023-07-08T05:24:13;1.90;;;1.70;;
71759;SDS011;59919;48.112;16.280;2023-07-08T05:26:44;2.00;;;1.80;;
71759;SDS011;59919;48.112;16.280;2023-07-08T05:29:18;2.70;;;1.58;;
71759;SDS011;59919;48.112;16.280;2023-07-08T05:31:49;1.60;;;1.50;;
71759;SDS011;59919;48.112;16.280;2023-07-08T05:34:20;1.90;;;1.60;;
71759;SDS011;59919;48.112;16.280;2023-07-08T05:36:55;1.52;;;1.35;;
71759;SDS011;59919;48.112;16.280;2023-07-08T05:39:26;1.48;;;1.38;;
71759;SDS011;59919;48.112;16.280;2023-07-08T05:41:59;2.00;;;1.80;;
71759;SDS011;59919;48.112;16.280;2023-07-08T05:44:31;2.10;;;1.60;;
71759;SDS011;59919;48.112;16.280;2023-07-08T05:47:02;2.00;;;1.58;;
71759;SDS011;59919;48.112;16.280;2023-07-08T05:49:33;1.70;;;1.60;;
71759;SDS011;59919;48.112;16.280;2023-07-08T05:52:05;2.60;;;1.73;;
71759;SDS011;59919;48.112;16.280;2023-07-08T05:54:41;2.08;;;1.63;;
71759;SDS011;59919;48.112;16.280;2023-07-08T05:57:15;1.58;;;1.20;;
71759;SDS011;59919;48.112;16.280;2023-07-08T05:59:48;2.20;;;2.00;;
71759;SDS011;59919;48.112;16.280;2023-07-08T06:02:21;1.60;;;1.50;;
71759;SDS011;59919;48.112;16.280;2023-07-08T06:05:00;1.70;;;1.60;;
71759;SDS011;59919;48.112;16.280;2023-07-08T06:07:37;2.22;;;1.90;;
71759;SDS011;59919;48.112;16.280;2023-07-08T06:10:08;2.00;;;1.73;;
71759;SDS011;59919;48.112;16.280;2023-07-08T06:12:39;2.22;;;1.60;;
71759;SDS011;59919;48.112;16.280;2023-07-08T06:15:13;1.63;;;1.52;;
71759;SDS011;59919;48.112;16.280;2023-07-08T06:17:50;1.40;;;1.25;;
71759;SDS011;59919;48.112;16.280;2023-07-08T06:20:21;2.10;;;1.58;;
71759;SDS011;59919;48.112;16.280;2023-07-08T06:22:52;1.88;;;1.55;;
71759;SDS011;59919;48.112;16.280;2023-07-08T06:25:24;1.85;;;1.67;;
71759;SDS011;59919;48.112;16.280;2023-07-08T06:27:57;1.80;;;1.63;;
71759;SDS011;59919;48.112;16.280;2023-07-08T06:30:28;2.35;;;1.98;;
71759;SDS011;59919;48.112;16.280;2023-07-08T06:33:05;1.95;;;1.45;;
71759;SDS011;59919;48.112;16.280;2023-07-08T06:35:36;2.80;;;1.60;;
71759;SDS011;59919;48.112;16.280;2023-07-08T06:38:07;1.80;;;1.70;;
71759;SDS011;59919;48.112;16.280;2023-07-08T06:40:43;1.77;;;1.50;;
71759;SDS011;59919;48.112;16.280;2023-07-08T06:43:15;1.65;;;1.40;;
71759;SDS011;59919;48.112;16.280;2023-07-08T06:45:49;1.60;;;1.48;;
71759;SDS011;59919;48.112;16.280;2023-07-08T06:48:21;1.65;;;1.55;;
71759;SDS011;59919;48.112;16.280;2023-07-08T06:50:55;2.03;;;1.83;;
71759;SDS011;59919;48.112;16.280;2023-07-08T06:53:31;1.73;;;1.50;;
71759;SDS011;59919;48.112;16.280;2023-07-08T06:56:02;1.52;;;1.33;;
71759;SDS011;59919;48.112;16.280;2023-07-08T06:58:39;1.65;;;1.50;;
71759;SDS011;59919;48.112;16.280;2023-07-08T07:01:10;1.83;;;1.50;;
71759;SDS011;59919;48.112;16.280;2023-07-08T07:03:46;1.48;;;1.33;;
71759;SDS011;59919;48.112;16.280;2023-07-08T07:06:17;1.88;;;1.50;;
71759;SDS011;59919;48.112;16.280;2023-07-08T07:08:51;1.50;;;1.40;;
71759;SDS011;59919;48.112;16.280;2023-07-08T07:11:23;1.88;;;1.65;;
71759;SDS011;59919;48.112;16.280;2023-07-08T07:14:01;2.00;;;1.60;;
71759;SDS011;59919;48.112;16.280;2023-07-08T07:16:33;1.88;;;1.60;;
71759;SDS011;59919;48.112;16.280;2023-07-08T07:19:07;1.60;;;1.50;;
71759;SDS011;59919;48.112;16.280;2023-07-08T07:21:42;1.60;;;1.50;;
71759;SDS011;59919;48.112;16.280;2023-07-08T07:24:15;1.85;;;1.60;;
71759;SDS011;59919;48.112;16.280;2023-07-08T07:26:47;1.55;;;1.45;;
71759;SDS011;59919;48.112;16.280;2023-07-08T07:29:18;1.52;;;1.42;;
71759;SDS011;59919;48.112;16.280;2023-07-08T07:31:52;2.42;;;1.70;;
71759;SDS011;59919;48.112;16.280;2023-07-08T07:34:23;1.98;;;1.48;;
71759;SDS011;59919;48.112;16.280;2023-07-08T07:36:54;1.40;;;1.30;;
71759;SDS011;59919;48.112;16.280;2023-07-08T07:39:27;1.58;;;1.48;;
71759;SDS011;59919;48.112;16.280;2023-07-08T07:41:59;1.70;;;1.40;;
71759;SDS011;59919;48.112;16.280;2023-07-08T07:44:36;1.80;;;1.50;;
71759;SDS011;59919;48.112;16.280;2023-07-08T07:47:15;1.50;;;1.40;;
71759;SDS011;59919;48.112;16.280;2023-07-08T07:49:48;1.95;;;1.50;;
71759;SDS011;59919;48.112;16.280;2023-07-08T07:52:20;1.52;;;1.42;;
71759;SDS011;59919;48.112;16.280;2023-07-08T07:54:57;1.50;;;1.40;;
71759;SDS011;59919;48.112;16.280;2023-07-08T07:57:28;1.77;;;1.52;;
71759;SDS011;59919;48.112;16.280;2023-07-08T07:59:59;1.45;;;1.35;;
71759;SDS011;59919;48.112;16.280;2023-07-08T08:02:30;1.67;;;1.58;;
71759;SDS011;59919;48.112;16.280;2023-07-08T08:05:02;1.30;;;1.20;;
71759;SDS011;59919;48.112;16.280;2023-07-08T08:07:36;1.45;;;1.35;;
71759;SDS011;59919;48.112;16.280;2023-07-08T08:10:07;1.40;;;1.30;;
71759;SDS011;59919;48.112;16.280;2023-07-08T08:12:39;1.55;;;1.45;;
71759;SDS011;59919;48.112;16.280;2023-07-08T08:15:16;1.77;;;1.40;;
71759;SDS011;59919;48.112;16.280;2023-07-08T08:17:47;1.50;;;1.40;;
71759;SDS011;59919;48.112;16.280;2023-07-08T08:20:20;1.42;;;1.27;;
71759;SDS011;59919;48.112;16.280;2023-07-08T08:22:55;1.48;;;1.30;;
71759;SDS011;59919;48.112;16.280;2023-07-08T08:25:26;1.52;;;1.40;;
71759;SDS011;59919;48.112;16.280;2023-07-08T08:27:57;1.38;;;1.27;;
71759;SDS011;59919;48.112;16.280;2023-07-08T08:30:29;1.40;;;1.20;;
71759;SDS011;59919;48.112;16.280;2023-07-08T08:33:01;1.10;;;1.00;;
71759;SDS011;59919;48.112;16.280;2023-07-08T08:35:32;1.40;;;1.30;;
71759;SDS011;59919;48.112;16.280;2023-07-08T08:38:03;1.52;;;1.33;;
71759;SDS011;59919;48.112;16.280;2023-07-08T08:40:38;1.40;;;1.10;;
71759;SDS011;59919;48.112;16.280;2023-07-08T08:43:13;1.55;;;1.20;;
71759;SDS011;59919;48.112;16.280;2023-07-08T08:48:32;1.17;;;1.08;;
71759;SDS011;59919;48.112;16.280;2023-07-08T08:51:14;1.30;;;1.20;;
71759;SDS011;59919;48.112;16.280;2023-07-08T08:53:50;2.03;;;1.25;;
71759;SDS011;59919;48.112;16.280;2023-07-08T08:56:31;1.25;;;1.00;;
71759;SDS011;59919;48.112;16.280;2023-07-08T09:01:56;1.40;;;1.30;;
71759;SDS011;59919;48.112;16.280;2023-07-08T09:04:29;1.30;;;1.20;;
71759;SDS011;59919;48.112;16.280;2023-07-08T09:07:12;1.45;;;1.20;;
71759;SDS011;59919;48.112;16.280;2023-07-08T09:09:55;1.10;;;1.00;;
71759;SDS011;59919;48.112;16.280;2023-07-08T09:12:37;1.30;;;1.20;;
71759;SDS011;59919;48.112;16.280;2023-07-08T09:15:12;1.45;;;1.20;;
71759;SDS011;59919;48.112;16.280;2023-07-08T09:17:46;1.40;;;1.30;;
71759;SDS011;59919;48.112;16.280;2023-07-08T09:20:21;1.20;;;1.10;;
71759;SDS011;59919;48.112;16.280;2023-07-08T09:23:03;1.42;;;1.30;;
71759;SDS011;59919;48.112;16.280;2023-07-08T09:28:37;1.75;;;1.27;;
71759;SDS011;59919;48.112;16.280;2023-07-08T09:34:11;1.38;;;1.25;;
71759;SDS011;59919;48.112;16.280;2023-07-08T09:36:50;1.58;;;1.10;;
71759;SDS011;59919;48.112;16.280;2023-07-08T09:39:24;1.30;;;1.20;;
71759;SDS011;59919;48.112;16.280;2023-07-08T09:41:55;1.30;;;1.20;;
71759;SDS011;59919;48.112;16.280;2023-07-08T09:44:27;1.30;;;1.20;;
71759;SDS011;59919;48.112;16.280;2023-07-08T09:47:00;1.30;;;1.20;;
71759;SDS011;59919;48.112;16.280;2023-07-08T09:49:47;1.13;;;1.02;;
71759;SDS011;59919;48.112;16.280;2023-07-08T09:52:21;1.50;;;1.23;;
71759;SDS011;59919;48.112;16.280;2023-07-08T09:54:54;1.30;;;1.20;;
71759;SDS011;59919;48.112;16.280;2023-07-08T09:57:28;1.50;;;0.98;;
71759;SDS011;59919;48.112;16.280;2023-07-08T10:00:10;1.67;;;1.30;;
71759;SDS011;59919;48.112;16.280;2023-07-08T10:02:49;1.00;;;0.90;;
71759;SDS011;59919;48.112;16.280;2023-07-08T10:05:32;1.45;;;1.20;;
71759;SDS011;59919;48.112;16.280;2023-07-08T10:08:15;1.25;;;1.10;;
71759;SDS011;59919;48.112;16.280;2023-07-08T10:10:47;1.27;;;1.17;;
71759;SDS011;59919;48.112;16.280;2023-07-08T10:13:26;1.10;;;1.00;;
71759;SDS011;59919;48.112;16.280;2023-07-08T10:16:24;1.23;;;1.13;;
71759;SDS011;59919;48.112;16.280;2023-07-08T10:19:13;1.20;;;1.10;;
71759;SDS011;59919;48.112;16.280;2023-07-08T10:25:04;1.20;;;1.00;;
71759;SDS011;59919;48.112;16.280;2023-07-08T10:30:30;1.33;;;1.20;;
71759;SDS011;59919;48.112;16.280;2023-07-08T10:39:29;0.88;;;0.88;;
71759;SDS011;59919;48.112;16.280;2023-07-08T10:48:00;1.08;;;0.98;;
71759;SDS011;59919;48.112;16.280;2023-07-08T10:56:21;1.25;;;1.13;;
71759;SDS011;59919;48.112;16.280;2023-07-08T10:59:15;1.27;;;1.10;;
71759;SDS011;59919;48.112;16.280;2023-07-08T11:02:01;1.38;;;1.27;;
71759;SDS011;59919;48.112;16.280;2023-07-08T11:04:43;1.30;;;1.20;;
71759;SDS011;59919;48.112;16.280;2023-07-08T11:13:01;1.45;;;1.35;;
71759;SDS011;59919;48.112;16.280;2023-07-08T11:15:41;1.10;;;1.00;;
71759;SDS011;59919;48.112;16.280;2023-07-08T11:21:29;1.08;;;0.98;;
71759;SDS011;59919;48.112;16.280;2023-07-08T11:27:04;1.35;;;1.20;;
71759;SDS011;59919;48.112;16.280;2023-07-08T11:30:06;1.27;;;1.17;;
71759;SDS011;59919;48.112;16.280;2023-07-08T11:32:45;1.83;;;0.98;;
71759;SDS011;59919;48.112;16.280;2023-07-08T11:35:43;1.00;;;0.90;;
71759;SDS011;59919;48.112;16.280;2023-07-08T11:38:15;1.35;;;1.02;;
71759;SDS011;59919;48.112;16.280;2023-07-08T11:46:25;0.90;;;0.80;;
71759;SDS011;59919;48.112;16.280;2023-07-08T11:49:03;1.05;;;0.95;;
71759;SDS011;59919;48.112;16.280;2023-07-08T11:51:38;1.20;;;1.02;;
71759;SDS011;59919;48.112;16.280;2023-07-08T11:57:15;1.15;;;1.05;;
71759;SDS011;59919;48.112;16.280;2023-07-08T12:03:23;1.17;;;1.08;;
71759;SDS011;59919;48.112;16.280;2023-07-08T12:12:02;1.13;;;1.02;;
71759;SDS011;59919;48.112;16.280;2023-07-08T12:14:36;1.30;;;1.20;;
71759;SDS011;59919;48.112;16.280;2023-07-08T12:17:11;1.30;;;1.00;;
71759;SDS011;59919;48.112;16.280;2023-07-08T12:19:45;1.13;;;1.02;;
71759;SDS011;59919;48.112;16.280;2023-07-08T12:22:20;1.52;;;1.15;;
71759;SDS011;59919;48.112;16.280;2023-07-08T12:24:55;1.00;;;0.90;;
71759;SDS011;59919;48.112;16.280;2023-07-08T12:27:25;1.70;;;1.20;;
71759;SDS011;59919;48.112;16.280;2023-07-08T12:30:00;1.15;;;1.05;;
71759;SDS011;59919;48.112;16.280;2023-07-08T12:32:36;1.30;;;1.20;;
71759;SDS011;59919;48.112;16.280;2023-07-08T12:35:17;1.10;;;1.00;;
71759;SDS011;59919;48.112;16.280;2023-07-08T12:38:27;1.35;;;1.08;;
71759;SDS011;59919;48.112;16.280;2023-07-08T12:40:55;1.10;;;0.90;;
71759;SDS011;59919;48.112;16.280;2023-07-08T12:43:30;1.30;;;1.10;;
71759;SDS011;59919;48.112;16.280;2023-07-08T12:46:02;1.30;;;1.20;;
71759;SDS011;59919;48.112;16.280;2023-07-08T12:48:39;1.25;;;1.13;;
71759;SDS011;59919;48.112;16.280;2023-07-08T12:51:15;1.63;;;1.08;;
71759;SDS011;59919;48.112;16.280;2023-07-08T12:53:58;1.63;;;1.20;;
71759;SDS011;59919;48.112;16.280;2023-07-08T12:56:29;1.20;;;1.10;;
71759;SDS011;59919;48.112;16.280;2023-07-08T12:59:03;1.15;;;1.05;;
71759;SDS011;59919;48.112;16.280;2023-07-08T13:01:38;1.00;;;0.90;;
71759;SDS011;59919;48.112;16.280;2023-07-08T13:04:10;1.05;;;0.95;;
71759;SDS011;59919;48.112;16.280;2023-07-08T13:06:43;0.90;;;0.80;;
71759;SDS011;59919;48.112;16.280;2023-07-08T13:12:13;1.10;;;1.00;;
71759;SDS011;59919;48.112;16.280;2023-07-08T13:14:50;1.10;;;1.00;;
71759;SDS011;59919;48.112;16.280;2023-07-08T13:17:29;1.25;;;0.98;;
71759;SDS011;59919;48.112;16.280;2023-07-08T13:20:03;1.40;;;1.10;;
71759;SDS011;59919;48.112;16.280;2023-07-08T13:22:35;1.27;;;1.10;;
71759;SDS011;59919;48.112;16.280;2023-07-08T13:25:09;1.23;;;1.13;;
71759;SDS011;59919;48.112;16.280;2023-07-08T13:30:30;0.95;;;0.88;;
71759;SDS011;59919;48.112;16.280;2023-07-08T13:33:02;1.65;;;1.10;;
71759;SDS011;59919;48.112;16.280;2023-07-08T13:35:38;1.17;;;1.00;;
71759;SDS011;59919;48.112;16.280;2023-07-08T13:38:19;0.98;;;0.95;;
71759;SDS011;59919;48.112;16.280;2023-07-08T13:40:59;1.10;;;1.00;;
71759;SDS011;59919;48.112;16.280;2023-07-08T13:43:38;1.10;;;1.00;;
71759;SDS011;59919;48.112;16.280;2023-07-08T13:51:51;1.20;;;1.10;;
71759;SDS011;59919;48.112;16.280;2023-07-08T13:54:33;0.95;;;0.85;;
71759;SDS011;59919;48.112;16.280;2023-07-08T13:57:09;1.20;;;1.05;;
71759;SDS011;59919;48.112;16.280;2023-07-08T13:59:43;1.23;;;1.00;;
71759;SDS011;59919;48.112;16.280;2023-07-08T14:02:16;0.98;;;0.88;;
71759;SDS011;59919;48.112;16.280;2023-07-08T14:04:52;1.13;;;1.00;;
71759;SDS011;59919;48.112;16.280;2023-07-08T14:07:26;1.25;;;1.15;;
71759;SDS011;59919;48.112;16.280;2023-07-08T14:09:58;0.80;;;0.75;;
71759;SDS011;59919;48.112;16.280;2023-07-08T14:12:32;0.88;;;0.88;;
71759;SDS011;59919;48.112;16.280;2023-07-08T14:15:03;1.05;;;0.95;;
71759;SDS011;59919;48.112;16.280;2023-07-08T14:17:35;1.10;;;1.00;;
71759;SDS011;59919;48.112;16.280;2023-07-08T14:20:12;1.08;;;0.90;;
71759;SDS011;59919;48.112;16.280;2023-07-08T14:22:48;1.23;;;1.10;;
71759;SDS011;59919;48.112;16.280;2023-07-08T14:25:22;0.90;;;0.90;;
71759;SDS011;59919;48.112;16.280;2023-07-08T14:27:56;0.95;;;0.85;;
71759;SDS011;59919;48.112;16.280;2023-07-08T14:30:30;1.00;;;0.90;;
71759;SDS011;59919;48.112;16.280;2023-07-08T14:33:01;1.48;;;1.10;;
71759;SDS011;59919;48.112;16.280;2023-07-08T14:35:36;1.20;;;1.10;;
71759;SDS011;59919;48.112;16.280;2023-07-08T14:38:12;1.00;;;0.90;;
71759;SDS011;59919;48.112;16.280;2023-07-08T14:40:43;1.35;;;1.02;;
71759;SDS011;59919;48.112;16.280;2023-07-08T14:43:17;0.82;;;0.73;;
71759;SDS011;59919;48.112;16.280;2023-07-08T14:45:52;1.00;;;0.90;;
71759;SDS011;59919;48.112;16.280;2023-07-08T14:51:00;0.98;;;0.93;;
71759;SDS011;59919;48.112;16.280;2023-07-08T14:53:34;1.10;;;1.00;;
71759;SDS011;59919;48.112;16.280;2023-07-08T14:56:08;1.08;;;1.00;;
71759;SDS011;59919;48.112;16.280;2023-07-08T14:58:45;1.23;;;1.00;;
71759;SDS011;59919;48.112;16.280;2023-07-08T15:01:23;1.50;;;1.17;;
71759;SDS011;59919;48.112;16.280;2023-07-08T15:04:00;0.80;;;0.80;;
71759;SDS011;59919;48.112;16.280;2023-07-08T15:06:32;1.10;;;1.00;;
71759;SDS011;59919;48.112;16.280;2023-07-08T15:09:03;0.90;;;0.80;;
71759;SDS011;59919;48.112;16.280;2023-07-08T15:11:40;1.20;;;1.10;;
71759;SDS011;59919;48.112;16.280;2023-07-08T15:14:19;1.63;;;1.27;;
71759;SDS011;59919;48.112;16.280;2023-07-08T15:16:55;1.00;;;0.90;;
71759;SDS011;59919;48.112;16.280;2023-07-08T15:19:26;1.00;;;0.93;;
71759;SDS011;59919;48.112;16.280;2023-07-08T15:21:59;1.05;;;0.88;;
71759;SDS011;59919;48.112;16.280;2023-07-08T15:24:32;1.00;;;0.80;;
71759;SDS011;59919;48.112;16.280;2023-07-08T15:27:04;1.30;;;1.10;;
71759;SDS011;59919;48.112;16.280;2023-07-08T15:29:38;1.40;;;1.20;;
71759;SDS011;59919;48.112;16.280;2023-07-08T15:32:15;1.23;;;1.13;;
71759;SDS011;59919;48.112;16.280;2023-07-08T15:34:47;0.90;;;0.90;;
71759;SDS011;59919;48.112;16.280;2023-07-08T15:37:20;1.10;;;1.00;;
71759;SDS011;59919;48.112;16.280;2023-07-08T15:39:52;1.20;;;1.10;;
71759;SDS011;59919;48.112;16.280;2023-07-08T15:42:23;0.90;;;0.90;;
71759;SDS011;59919;48.112;16.280;2023-07-08T15:44:54;1.10;;;1.00;;
71759;SDS011;59919;48.112;16.280;2023-07-08T15:47:26;1.20;;;1.10;;
71759;SDS011;59919;48.112;16.280;2023-07-08T15:49:57;1.00;;;0.90;;
71759;SDS011;59919;48.112;16.280;2023-07-08T15:52:30;1.25;;;1.10;;
71759;SDS011;59919;48.112;16.280;2023-07-08T15:55:04;1.05;;;0.90;;
71759;SDS011;59919;48.112;16.280;2023-07-08T15:57:47;0.80;;;0.80;;
71759;SDS011;59919;48.112;16.280;2023-07-08T16:00:23;1.20;;;1.10;;
71759;SDS011;59919;48.112;16.280;2023-07-08T16:03:01;0.95;;;0.85;;
71759;SDS011;59919;48.112;16.280;2023-07-08T16:05:39;1.23;;;1.00;;
71759;SDS011;59919;48.112;16.280;2023-07-08T16:08:12;2.17;;;1.15;;
71759;SDS011;59919;48.112;16.280;2023-07-08T16:10:44;0.93;;;0.93;;
71759;SDS011;59919;48.112;16.280;2023-07-08T16:13:24;1.30;;;1.10;;
71759;SDS011;59919;48.112;16.280;2023-07-08T16:16:00;1.00;;;0.90;;
71759;SDS011;59919;48.112;16.280;2023-07-08T16:18:32;1.10;;;1.00;;
71759;SDS011;59919;48.112;16.280;2023-07-08T16:21:03;2.22;;;1.25;;
71759;SDS011;59919;48.112;16.280;2023-07-08T16:23:36;1.15;;;1.00;;
71759;SDS011;59919;48.112;16.280;2023-07-08T16:26:08;1.20;;;1.10;;
71759;SDS011;59919;48.112;16.280;2023-07-08T16:28:49;1.15;;;1.05;;
71759;SDS011;59919;48.112;16.280;2023-07-08T16:31:24;1.33;;;0.98;;
71759;SDS011;59919;48.112;16.280;2023-07-08T16:33:59;0.88;;;0.88;;
71759;SDS011;59919;48.112;16.280;2023-07-08T16:36:30;0.90;;;0.88;;
71759;SDS011;59919;48.112;16.280;2023-07-08T16:39:04;1.13;;;1.02;;
71759;SDS011;59919;48.112;16.280;2023-07-08T16:41:35;0.77;;;0.73;;